Terminal Aerodrome Forecast
Issued by NWS

Home | Current Version | Previous Version | Graphics & Text | Print | Product List | Glossary On
Versions: 1 2 3 4 5 6 7 8 9 10 11 12 13 14 15 16 17 18 19 20
129
FTUS43 KGRB 261634 AAB
TAFAUW
TAF AMD
KAUW 261634Z 2617/2712 12006KT 2SM -RA OVC006
     FM261800 21008G14KT P6SM OVC035
     FM270000 31008KT P6SM OVC017
     FM270300 33008KT P6SM -RA OVC009=

USA.gov is the U.S. government's official web portal to all federal, state and local government web resources and services.